Time;durP1;ratioP1;P1;durP2;ratioP2;P2;SDS_P1;SDS_P2;PMS_P1;PMS_P2;Temp;Humidity;BMP_temperature;BMP_pressure;BME280_temperature;BME280_humidity;BME280_pressure;Samples;Min_cycle;Max_cycle;Signal;HPM_P1;HPM_P2
2023/03/14 00:01:16;;;;;;;;;;;;;;;18.08;100.00;98735.78;4989389;28;20032;-53
2023/03/14 00:03:43;;;;;;;;;;;;;;;17.90;100.00;98744.44;4989828;28;19914;-55
2023/03/14 00:06:09;;;;;;;;;;;;;;;17.98;100.00;98748.38;4992626;28;19920;-56
2023/03/14 00:08:35;;;;;;;;;;;;;;;18.00;100.00;98739.97;4979554;28;19910;-55
2023/03/14 00:11:07;;;;;;;;;;;;;;;18.01;100.00;98747.00;4986890;28;19918;-54
2023/03/14 00:13:32;;;;;;;;;;;;;;;17.66;100.00;98732.94;4983414;28;19925;-52
2023/03/14 00:16:15;;;;;;;;;;;;;;;17.82;100.00;98739.72;4988651;28;20366;-50
2023/03/14 00:18:41;;;;;;;;;;;;;;;18.43;100.00;98741.69;4988298;28;19914;-53
2023/03/14 00:21:07;;;;;;;;;;;;;;;18.43;100.00;98736.25;4984718;28;19981;-53
2023/03/14 00:23:34;;;;;;;;;;;;;;;18.11;100.00;98741.41;4988047;28;19922;-51
2023/03/14 00:26:00;;;;;;;;;;;;;;;17.68;100.00;98755.06;4986834;28;19981;-56
2023/03/14 00:28:26;;;;;;;;;;;;;;;17.61;100.00;98745.44;4988355;28;19940;-57
2023/03/14 00:30:51;;;;;;;;;;;;;;;17.43;100.00;98740.84;4969133;28;19953;-56
2023/03/14 00:33:17;;;;;;;;;;;;;;;16.73;100.00;98760.06;4983737;28;19914;-55
2023/03/14 00:35:42;;;;;;;;;;;;;;;17.19;100.00;98750.63;4986339;28;19953;-53
2023/03/14 00:38:08;;;;;;;;;;;;;;;17.25;100.00;98754.03;4992649;28;19925;-52
2023/03/14 00:40:33;;;;;;;;;;;;;;;17.13;100.00;98754.47;4969724;28;20639;-53
2023/03/14 00:42:59;;;;;;;;;;;;;;;17.27;100.00;98769.97;4987805;28;19918;-55
2023/03/14 00:45:25;;;;;;;;;;;;;;;16.90;100.00;98769.59;4982073;28;19944;-53
2023/03/14 00:47:51;;;;;;;;;;;;;;;17.13;100.00;98756.38;4986181;28;19925;-51
2023/03/14 00:50:17;;;;;;;;;;;;;;;17.26;100.00;98765.66;4974051;28;20514;-54
2023/03/14 00:52:46;;;;;;;;;;;;;;;17.37;100.00;98755.53;4988255;28;19914;-53
2023/03/14 00:55:11;;;;;;;;;;;;;;;17.86;100.00;98765.06;4985850;28;19977;-54
2023/03/14 00:57:37;;;;;;;;;;;;;;;17.19;100.00;98752.50;4991405;28;19914;-54
2023/03/14 01:00:05;;;;;;;;;;;;;;;17.02;100.00;98745.69;4988268;28;19910;-56
2023/03/14 01:02:31;;;;;;;;;;;;;;;17.38;100.00;98735.50;4986127;28;19939;-53
2023/03/14 01:04:56;;;;;;;;;;;;;;;17.13;100.00;98753.69;4987919;28;19949;-54
2023/03/14 01:07:22;;;;;;;;;;;;;;;16.37;100.00;98765.81;4985485;28;19928;-53
2023/03/14 01:09:50;;;;;;;;;;;;;;;16.91;100.00;98757.69;4988470;28;19910;-54
2023/03/14 01:12:16;;;;;;;;;;;;;;;16.74;100.00;98748.16;4983432;28;19914;-53
2023/03/14 01:14:42;;;;;;;;;;;;;;;16.62;100.00;98764.75;4991490;28;19940;-53
2023/03/14 01:17:07;;;;;;;;;;;;;;;16.53;100.00;98771.06;4984311;28;19921;-51
2023/03/14 01:19:33;;;;;;;;;;;;;;;16.80;100.00;98754.31;4985905;28;19944;-51
2023/03/14 01:21:58;;;;;;;;;;;;;;;16.96;100.00;98759.53;4989128;28;19929;-52
2023/03/14 01:24:24;;;;;;;;;;;;;;;16.24;100.00;98750.31;4987513;28;19921;-52
2023/03/14 01:26:49;;;;;;;;;;;;;;;16.30;100.00;98760.78;4983385;28;19914;-56
2023/03/14 01:29:14;;;;;;;;;;;;;;;16.66;100.00;98769.59;4983549;28;19925;-52
2023/03/14 01:31:40;;;;;;;;;;;;;;;16.15;100.00;98777.91;4977007;28;19918;-55
2023/03/14 01:34:05;;;;;;;;;;;;;;;15.98;100.00;98764.81;4978105;28;19973;-50
2023/03/14 01:36:32;;;;;;;;;;;;;;;16.26;100.00;98767.84;4979269;28;19957;-53
2023/03/14 01:39:00;;;;;;;;;;;;;;;16.27;100.00;98757.84;4980428;28;19967;-54
2023/03/14 01:41:25;;;;;;;;;;;;;;;16.16;100.00;98759.81;5013592;28;19922;-54
2023/03/14 01:43:52;;;;;;;;;;;;;;;15.90;100.00;98752.75;4987929;28;19987;-52
2023/03/14 01:46:23;;;;;;;;;;;;;;;15.65;100.00;98753.72;4984371;28;19918;-51
2023/03/14 01:48:55;;;;;;;;;;;;;;;16.37;100.00;98762.34;4971186;28;19921;-55
2023/03/14 01:51:26;;;;;;;;;;;;;;;16.31;100.00;98766.97;4970833;28;19918;-54
2023/03/14 01:53:53;;;;;;;;;;;;;;;16.19;100.00;98759.25;5005660;28;19914;-54
2023/03/14 01:56:19;;;;;;;;;;;;;;;15.85;100.00;98760.84;4985228;28;19985;-55
2023/03/14 01:58:47;;;;;;;;;;;;;;;15.99;100.00;98746.78;4993905;28;19921;-57
2023/03/14 02:01:14;;;;;;;;;;;;;;;16.37;100.00;98759.63;4990416;28;19918;-55
2023/03/14 02:03:46;;;;;;;;;;;;;;;16.12;100.00;98751.47;4983446;28;19957;-56
2023/03/14 02:06:15;;;;;;;;;;;;;;;15.90;100.00;98743.88;4988116;28;20297;-52
2023/03/14 02:08:41;;;;;;;;;;;;;;;15.77;100.00;98742.59;4971396;28;20051;-53
2023/03/14 02:11:12;;;;;;;;;;;;;;;15.96;100.00;98748.13;4975044;28;19962;-51
2023/03/14 02:13:50;;;;;;;;;;;;;;;15.75;100.00;98739.38;4979690;28;20830;-56
2023/03/14 02:16:55;;;;;;;;;;;;;;;15.61;100.00;98726.53;4907940;28;19923;-54
2023/03/14 02:19:53;;;;;;;;;;;;;;;15.96;100.00;98725.78;4895564;29;19912;-53
2023/03/14 02:22:29;;;;;;;;;;;;;;;16.02;100.00;98724.63;4949236;28;20012;-52
2023/03/14 02:24:59;;;;;;;;;;;;;;;16.24;100.00;98717.97;4985655;28;19949;-52
2023/03/14 02:27:25;;;;;;;;;;;;;;;16.29;100.00;98713.31;4992185;28;19921;-55
2023/03/14 02:29:57;;;;;;;;;;;;;;;16.35;100.00;98719.44;4993234;28;19918;-51
2023/03/14 02:32:24;;;;;;;;;;;;;;;16.19;100.00;98714.22;4988544;28;19914;-53
2023/03/14 02:34:54;;;;;;;;;;;;;;;16.14;100.00;98706.16;4999867;28;19914;-53
2023/03/14 02:37:20;;;;;;;;;;;;;;;15.97;100.00;98705.81;4980942;28;19960;-52
2023/03/14 02:39:49;;;;;;;;;;;;;;;15.84;100.00;98707.25;4984730;28;19920;-54
2023/03/14 02:42:15;;;;;;;;;;;;;;;15.82;100.00;98706.72;4982318;28;19901;-56
2023/03/14 02:44:55;;;;;;;;;;;;;;;15.96;100.00;98715.78;4978490;28;19970;-53
2023/03/14 02:47:24;;;;;;;;;;;;;;;16.01;100.00;98693.38;4984097;28;19914;-54
2023/03/14 02:49:59;;;;;;;;;;;;;;;15.68;100.00;98707.34;4988699;28;19928;-54
2023/03/14 02:52:25;;;;;;;;;;;;;;;15.86;100.00;98692.38;4980453;28;19914;-54
2023/03/14 02:54:50;;;;;;;;;;;;;;;15.70;100.00;98705.19;4986279;28;19973;-49
2023/03/14 02:57:16;;;;;;;;;;;;;;;15.96;100.00;98688.81;4977894;28;19929;-52
2023/03/14 02:59:41;;;;;;;;;;;;;;;15.66;100.00;98690.69;4969977;28;20051;-54
2023/03/14 03:02:12;;;;;;;;;;;;;;;15.80;100.00;98701.59;4973361;28;19975;-52
2023/03/14 03:04:38;;;;;;;;;;;;;;;15.67;100.00;98686.06;4989179;28;19914;-53
2023/03/14 03:07:03;;;;;;;;;;;;;;;15.77;100.00;98694.09;4986877;28;19945;-50
2023/03/14 03:09:29;;;;;;;;;;;;;;;15.79;100.00;98681.13;4988795;28;19929;-55
2023/03/14 03:11:55;;;;;;;;;;;;;;;15.69;100.00;98682.03;4971561;28;19914;-56
2023/03/14 03:14:23;;;;;;;;;;;;;;;15.62;100.00;98689.63;4980919;28;19964;-57
2023/03/14 03:16:49;;;;;;;;;;;;;;;16.09;100.00;98687.34;4966360;28;19914;-51
2023/03/14 03:19:15;;;;;;;;;;;;;;;16.02;100.00;98681.50;4985737;28;19922;-53
2023/03/14 03:21:41;;;;;;;;;;;;;;;16.12;100.00;98677.91;4971016;28;19914;-51
2023/03/14 03:24:06;;;;;;;;;;;;;;;16.06;100.00;98685.22;4984287;28;19914;-51
2023/03/14 03:26:34;;;;;;;;;;;;;;;15.95;100.00;98675.66;4981806;28;20775;-53
2023/03/14 03:29:03;;;;;;;;;;;;;;;15.71;100.00;98697.91;4980813;28;19944;-54
2023/03/14 03:31:28;;;;;;;;;;;;;;;15.84;100.00;98686.47;4987443;28;20393;-52
2023/03/14 03:33:54;;;;;;;;;;;;;;;15.84;100.00;98691.06;4980657;28;19921;-51
2023/03/14 03:36:23;;;;;;;;;;;;;;;16.25;100.00;98687.19;4985574;28;19944;-56
2023/03/14 03:38:48;;;;;;;;;;;;;;;15.99;100.00;98687.47;4977886;28;19919;-54
2023/03/14 03:41:14;;;;;;;;;;;;;;;16.59;100.00;98670.09;4988459;28;19940;-53
2023/03/14 03:43:40;;;;;;;;;;;;;;;16.13;100.00;98674.91;4987007;28;19953;-54
2023/03/14 03:46:08;;;;;;;;;;;;;;;16.01;100.00;98685.28;4985330;28;19920;-55
2023/03/14 03:48:34;;;;;;;;;;;;;;;16.01;100.00;98667.19;4985713;28;19914;-49
2023/03/14 03:51:02;;;;;;;;;;;;;;;15.87;100.00;98667.03;4984134;28;19929;-54
2023/03/14 03:53:29;;;;;;;;;;;;;;;15.53;100.00;98669.75;4973421;28;19921;-54
2023/03/14 03:55:54;;;;;;;;;;;;;;;15.70;100.00;98664.78;4969968;28;19913;-55
2023/03/14 03:58:20;;;;;;;;;;;;;;;15.31;100.00;98677.19;4975175;28;19925;-53
2023/03/14 04:00:45;;;;;;;;;;;;;;;15.56;100.00;98653.84;4973426;28;19914;-52
2023/03/14 04:03:11;;;;;;;;;;;;;;;15.54;100.00;98656.03;4975197;28;19914;-51
2023/03/14 04:05:37;;;;;;;;;;;;;;;15.55;100.00;98679.19;4974655;28;19963;-51
2023/03/14 04:08:07;;;;;;;;;;;;;;;15.81;100.00;98692.44;4984974;28;19934;-53
2023/03/14 04:10:34;;;;;;;;;;;;;;;15.96;100.00;98671.88;4983107;28;19933;-52
2023/03/14 04:13:04;;;;;;;;;;;;;;;16.28;100.00;98668.56;4993266;28;20009;-49
2023/03/14 04:15:32;;;;;;;;;;;;;;;16.06;100.00;98682.53;4985376;28;19925;-54
2023/03/14 04:18:02;;;;;;;;;;;;;;;15.82;100.00;98669.78;4992544;28;19932;-53
2023/03/14 04:20:29;;;;;;;;;;;;;;;15.67;100.00;98675.28;4992276;28;19940;-53
2023/03/14 04:22:54;;;;;;;;;;;;;;;15.87;100.00;98677.81;4965733;28;19922;-54
2023/03/14 04:25:20;;;;;;;;;;;;;;;16.16;100.00;98665.44;4969062;28;19914;-51
2023/03/14 04:27:50;;;;;;;;;;;;;;;16.38;100.00;98662.25;4974984;28;19925;-52
2023/03/14 04:30:21;;;;;;;;;;;;;;;16.13;100.00;98672.19;4984080;28;19925;-51
2023/03/14 04:32:52;;;;;;;;;;;;;;;16.23;100.00;98659.72;4978172;28;19914;-54
2023/03/14 04:35:19;;;;;;;;;;;;;;;16.23;100.00;98670.50;4994269;28;19922;-54
2023/03/14 04:37:44;;;;;;;;;;;;;;;15.95;100.00;98659.47;4984670;28;19918;-53
2023/03/14 04:40:12;;;;;;;;;;;;;;;15.75;100.00;98669.31;4966797;28;20000;-50
2023/03/14 04:42:38;;;;;;;;;;;;;;;15.82;100.00;98656.31;4987122;28;19932;-51
2023/03/14 04:45:04;;;;;;;;;;;;;;;15.93;100.00;98664.34;4991731;28;19958;-50
2023/03/14 04:47:31;;;;;;;;;;;;;;;16.07;100.00;98654.47;4974246;28;19960;-51
2023/03/14 04:49:57;;;;;;;;;;;;;;;16.10;100.00;98670.09;4975116;28;19914;-53
2023/03/14 04:52:24;;;;;;;;;;;;;;;16.06;100.00;98666.34;4974830;28;19921;-54
2023/03/14 04:54:50;;;;;;;;;;;;;;;16.52;100.00;98658.84;4982582;28;19914;-53
2023/03/14 04:57:17;;;;;;;;;;;;;;;15.86;100.00;98641.16;4969352;28;20698;-56
2023/03/14 04:59:43;;;;;;;;;;;;;;;16.15;100.00;98661.16;5009133;28;19922;-53
2023/03/14 05:02:21;;;;;;;;;;;;;;;16.00;100.00;98648.63;4972402;28;19914;-51
2023/03/14 05:05:06;;;;;;;;;;;;;;;16.05;100.00;98632.41;4989839;28;19996;-54
2023/03/14 05:08:01;;;;;;;;;;;;;;;15.93;100.00;98645.47;4974282;28;19925;-55
2023/03/14 05:10:53;;;;;;;;;;;;;;;15.77;100.00;98640.97;4990727;28;19925;-52
2023/03/14 05:13:35;;;;;;;;;;;;;;;16.20;100.00;98639.50;4975694;28;19925;-54
2023/03/14 05:16:11;;;;;;;;;;;;;;;16.23;100.00;98643.53;4983860;28;19922;-54
2023/03/14 05:18:57;;;;;;;;;;;;;;;16.05;100.00;98633.22;4986808;28;19914;-53
2023/03/14 05:21:37;;;;;;;;;;;;;;;15.77;100.00;98632.09;5002284;28;19949;-53
2023/03/14 05:24:38;;;;;;;;;;;;;;;15.60;100.00;98644.09;4899094;28;19991;-53
2023/03/14 05:27:26;;;;;;;;;;;;;;;15.56;100.00;98640.38;4977566;28;19921;-51
2023/03/14 05:30:28;;;;;;;;;;;;;;;15.87;100.00;98633.91;5011329;28;19949;-55
2023/03/14 05:33:16;;;;;;;;;;;;;;;15.59;100.00;98631.72;4988479;28;19935;-53
2023/03/14 05:35:51;;;;;;;;;;;;;;;15.88;100.00;98639.03;4989537;28;19921;-51
2023/03/14 05:38:36;;;;;;;;;;;;;;;15.69;100.00;98628.13;4979446;28;19963;-49
2023/03/14 05:41:22;;;;;;;;;;;;;;;15.44;100.00;98634.53;4998357;28;19914;-49
2023/03/14 05:44:02;;;;;;;;;;;;;;;15.52;100.00;98647.41;4983540;28;19918;-51
2023/03/14 05:46:56;;;;;;;;;;;;;;;15.69;100.00;98630.03;4966698;28;19917;-55
2023/03/14 05:49:31;;;;;;;;;;;;;;;15.46;100.00;98643.16;4994037;28;19977;-55
2023/03/14 05:51:57;;;;;;;;;;;;;;;15.63;100.00;98627.38;4989542;28;19918;-52
2023/03/14 05:54:22;;;;;;;;;;;;;;;15.64;100.00;98630.88;4988401;28;19917;-49
2023/03/14 05:57:14;;;;;;;;;;;;;;;15.41;100.00;98618.94;4951056;28;19969;-55
2023/03/14 05:59:57;;;;;;;;;;;;;;;15.47;100.00;98617.84;4976930;28;19981;-53
2023/03/14 06:02:43;;;;;;;;;;;;;;;15.65;100.00;98634.38;4981478;28;19914;-55
2023/03/14 06:05:18;;;;;;;;;;;;;;;15.26;100.00;98620.69;4990489;28;19952;-55
2023/03/14 06:07:43;;;;;;;;;;;;;;;15.37;100.00;98612.50;4998856;28;19919;-55
2023/03/14 06:10:10;;;;;;;;;;;;;;;15.78;100.00;98620.25;4990809;28;19933;-54
2023/03/14 06:12:36;;;;;;;;;;;;;;;15.03;100.00;98608.72;4997631;28;19925;-56
2023/03/14 06:15:02;;;;;;;;;;;;;;;15.19;100.00;98641.72;4965089;28;19917;-49
2023/03/14 06:17:27;;;;;;;;;;;;;;;15.15;100.00;98621.84;4981306;28;19914;-54
2023/03/14 06:20:00;;;;;;;;;;;;;;;15.28;100.00;98637.38;4978799;28;21205;-56
2023/03/14 06:22:26;;;;;;;;;;;;;;;15.19;100.00;98626.38;4980713;28;20189;-54
2023/03/14 06:24:52;;;;;;;;;;;;;;;15.48;100.00;98635.59;4978787;28;19949;-54
2023/03/14 06:27:18;;;;;;;;;;;;;;;15.22;100.00;98616.13;4977005;28;19918;-54
2023/03/14 06:29:44;;;;;;;;;;;;;;;15.37;100.00;98617.91;4978379;28;19914;-54
2023/03/14 06:32:09;;;;;;;;;;;;;;;15.17;100.00;98625.03;4985372;28;19925;-54
2023/03/14 06:34:36;;;;;;;;;;;;;;;15.33;100.00;98617.66;4998242;28;19915;-54
2023/03/14 06:37:01;;;;;;;;;;;;;;;15.50;100.00;98617.28;4983600;28;19918;-55
2023/03/14 06:39:27;;;;;;;;;;;;;;;15.62;100.00;98623.06;4981529;28;19914;-51
2023/03/14 06:42:01;;;;;;;;;;;;;;;15.61;100.00;98626.06;4983234;28;19925;-55
2023/03/14 06:44:26;;;;;;;;;;;;;;;15.44;100.00;98621.88;4984572;28;19914;-57
2023/03/14 06:46:51;;;;;;;;;;;;;;;15.36;100.00;98617.13;4986137;28;19977;-57
2023/03/14 06:49:17;;;;;;;;;;;;;;;15.66;100.00;98633.28;4985862;28;19926;-58
2023/03/14 06:51:43;;;;;;;;;;;;;;;15.42;100.00;98637.53;4987930;28;19918;-56
2023/03/14 06:54:10;;;;;;;;;;;;;;;15.65;100.00;98699.84;5013673;28;19914;-58
2023/03/14 06:56:36;;;;;;;;;;;;;;;15.69;100.00;98711.66;4999264;28;19914;-59
2023/03/14 06:59:02;;;;;;;;;;;;;;;16.66;100.00;98716.44;4990065;28;19914;-54
2023/03/14 07:01:32;;;;;;;;;;;;;;;15.89;100.00;98726.09;4997457;28;19953;-56
2023/03/14 07:04:04;;;;;;;;;;;;;;;16.24;100.00;98739.53;4993539;28;19914;-56
2023/03/14 07:06:30;;;;;;;;;;;;;;;16.26;100.00;98750.84;4995117;28;19981;-56
2023/03/14 07:08:56;;;;;;;;;;;;;;;16.10;100.00;98752.88;4986202;28;19910;-57
2023/03/14 07:11:22;;;;;;;;;;;;;;;15.89;100.00;98759.22;4979223;28;19941;-56
2023/03/14 07:13:49;;;;;;;;;;;;;;;16.27;100.00;98768.63;5000114;28;19921;-56
2023/03/14 07:16:14;;;;;;;;;;;;;;;15.88;100.00;98771.09;5007204;28;19914;-57
2023/03/14 07:18:39;;;;;;;;;;;;;;;16.29;100.00;98774.53;4986604;28;19914;-57
2023/03/14 07:21:06;;;;;;;;;;;;;;;15.82;100.00;98780.28;4998857;28;19982;-54
2023/03/14 07:23:31;;;;;;;;;;;;;;;16.14;100.00;98791.66;4991775;28;19919;-56
2023/03/14 07:25:57;;;;;;;;;;;;;;;15.57;100.00;98803.63;5002165;28;19918;-57
2023/03/14 07:28:24;;;;;;;;;;;;;;;15.81;100.00;98804.84;4987500;28;19914;-55
2023/03/14 07:30:56;;;;;;;;;;;;;;;15.97;100.00;98814.44;4982937;28;19925;-55
2023/03/14 07:33:27;;;;;;;;;;;;;;;16.05;100.00;98826.50;4986331;28;22052;-56
2023/03/14 07:35:53;;;;;;;;;;;;;;;16.02;100.00;98837.84;4983605;28;19936;-54
2023/03/14 07:38:18;;;;;;;;;;;;;;;15.65;100.00;98828.34;4987611;28;19910;-58
2023/03/14 07:41:04;;;;;;;;;;;;;;;15.70;100.00;98837.22;5005621;28;19922;-55
2023/03/14 07:43:33;;;;;;;;;;;;;;;15.90;100.00;98849.00;4989240;28;20052;-53
2023/03/14 07:46:00;;;;;;;;;;;;;;;15.33;100.00;98866.22;5008205;28;19914;-53
2023/03/14 07:48:26;;;;;;;;;;;;;;;15.74;100.00;98870.59;4989325;28;19941;-57
2023/03/14 07:50:52;;;;;;;;;;;;;;;16.00;100.00;98883.16;4990536;28;20015;-55
2023/03/14 07:53:19;;;;;;;;;;;;;;;15.46;100.00;98891.75;4988483;28;19964;-55
2023/03/14 07:55:45;;;;;;;;;;;;;;;15.43;100.00;98886.09;4988402;28;19918;-57
2023/03/14 07:58:10;;;;;;;;;;;;;;;15.72;100.00;98915.09;4989459;28;19910;-57
2023/03/14 08:00:35;;;;;;;;;;;;;;;15.57;100.00;98919.47;4991866;28;19914;-56
2023/03/14 08:03:01;;;;;;;;;;;;;;;15.52;100.00;98937.53;4992012;28;19922;-54
2023/03/14 08:05:27;;;;;;;;;;;;;;;16.07;100.00;98936.78;4988494;28;19918;-51
2023/03/14 08:07:52;;;;;;;;;;;;;;;16.27;100.00;98941.22;4988818;28;19918;-56
2023/03/14 08:10:20;;;;;;;;;;;;;;;16.00;100.00;98947.88;4988472;28;19918;-55
2023/03/14 08:12:46;;;;;;;;;;;;;;;16.12;100.00;98955.63;4991291;28;19924;-56
2023/03/14 08:15:11;;;;;;;;;;;;;;;16.34;100.00;98963.28;4987782;28;19945;-54
2023/03/14 08:17:37;;;;;;;;;;;;;;;16.54;100.00;98975.03;4988047;28;20430;-56
2023/03/14 08:20:06;;;;;;;;;;;;;;;16.23;100.00;98986.03;4989425;28;19953;-56
2023/03/14 08:22:31;;;;;;;;;;;;;;;16.01;100.00;98988.00;4987950;28;19918;-55
2023/03/14 08:24:57;;;;;;;;;;;;;;;15.67;100.00;98995.94;4986671;28;19921;-54
2023/03/14 08:27:22;;;;;;;;;;;;;;;16.10;100.00;99009.81;4988249;28;19941;-54
2023/03/14 08:29:48;;;;;;;;;;;;;;;15.75;100.00;99006.16;4988744;28;20047;-55
2023/03/14 08:32:13;;;;;;;;;;;;;;;16.14;100.00;99024.34;4986832;28;19945;-53
2023/03/14 08:34:40;;;;;;;;;;;;;;;15.99;100.00;99044.09;4988834;28;19914;-52
2023/03/14 08:37:06;;;;;;;;;;;;;;;15.48;100.00;99050.44;4991333;28;19946;-55
2023/03/14 08:39:31;;;;;;;;;;;;;;;15.49;100.00;99057.44;4987372;28;19914;-52
2023/03/14 08:41:56;;;;;;;;;;;;;;;15.52;100.00;99075.75;4990373;28;19928;-56
2023/03/14 08:44:22;;;;;;;;;;;;;;;15.46;100.00;99087.59;4992155;28;20061;-52
2023/03/14 08:46:47;;;;;;;;;;;;;;;14.90;100.00;99105.34;4991473;28;20004;-55
2023/03/14 08:49:14;;;;;;;;;;;;;;;15.04;100.00;99132.53;4988852;28;20529;-56
2023/03/14 08:51:40;;;;;;;;;;;;;;;14.92;100.00;99135.47;4986520;28;19926;-52
2023/03/14 08:54:05;;;;;;;;;;;;;;;14.85;100.00;99148.41;4985849;28;19924;-53
2023/03/14 08:56:30;;;;;;;;;;;;;;;14.96;100.00;99163.47;4985698;28;20221;-55
2023/03/14 08:58:56;;;;;;;;;;;;;;;14.86;100.00;99175.03;4988050;28;19936;-52
2023/03/14 09:01:23;;;;;;;;;;;;;;;14.91;100.00;99198.47;4987921;28;19961;-52
2023/03/14 09:03:49;;;;;;;;;;;;;;;14.27;100.00;99190.38;4989610;28;19925;-51
2023/03/14 09:06:17;;;;;;;;;;;;;;;14.55;100.00;99211.75;4986376;28;19914;-55
2023/03/14 09:08:43;;;;;;;;;;;;;;;15.17;100.00;99209.28;4989823;28;19929;-54
2023/03/14 09:11:08;;;;;;;;;;;;;;;15.48;100.00;99212.06;4989066;28;19977;-52
2023/03/14 09:13:35;;;;;;;;;;;;;;;15.65;100.00;99225.25;4989420;28;19914;-53
2023/03/14 09:16:01;;;;;;;;;;;;;;;16.10;100.00;99232.81;4989564;28;20007;-55
2023/03/14 09:18:26;;;;;;;;;;;;;;;15.70;100.00;99246.03;4990251;28;19914;-55
2023/03/14 09:20:52;;;;;;;;;;;;;;;15.82;100.00;99270.81;4986708;28;19914;-53
2023/03/14 09:23:17;;;;;;;;;;;;;;;15.97;100.00;99277.31;4987086;28;20032;-51
2023/03/14 09:25:43;;;;;;;;;;;;;;;16.39;100.00;99280.78;4987707;28;19914;-52
2023/03/14 09:28:08;;;;;;;;;;;;;;;16.13;100.00;99292.41;4989395;28;19920;-54
2023/03/14 09:30:33;;;;;;;;;;;;;;;16.81;100.00;99303.09;4989587;28;19921;-53
2023/03/14 09:32:59;;;;;;;;;;;;;;;17.00;100.00;99328.44;4988967;28;19914;-53
2023/03/14 09:35:24;;;;;;;;;;;;;;;16.96;100.00;99331.94;4988574;28;19918;-52
2023/03/14 09:37:51;;;;;;;;;;;;;;;17.21;100.00;99347.28;4989857;28;19918;-56
2023/03/14 09:40:18;;;;;;;;;;;;;;;16.57;100.00;99354.97;4991570;28;19915;-52
2023/03/14 09:42:43;;;;;;;;;;;;;;;16.15;100.00;99357.69;4983595;28;19974;-55
2023/03/14 09:45:32;;;;;;;;;;;;;;;16.03;100.00;99379.53;4989274;28;19914;-52
2023/03/14 09:47:58;;;;;;;;;;;;;;;16.48;100.00;99392.47;4979072;28;19914;-50
2023/03/14 09:50:25;;;;;;;;;;;;;;;16.07;100.00;99400.56;4988298;28;19918;-52
2023/03/14 09:53:02;;;;;;;;;;;;;;;16.73;100.00;99407.06;4988340;28;19914;-54
2023/03/14 09:55:28;;;;;;;;;;;;;;;16.45;100.00;99420.81;4989463;28;19914;-53
2023/03/14 09:57:56;;;;;;;;;;;;;;;16.19;100.00;99431.59;4991043;28;19981;-54
2023/03/14 10:00:23;;;;;;;;;;;;;;;16.28;100.00;99445.38;4991150;28;19917;-53
2023/03/14 10:02:51;;;;;;;;;;;;;;;16.11;100.00;99447.47;4989451;28;19918;-50
2023/03/14 10:05:19;;;;;;;;;;;;;;;16.44;100.00;99451.56;4987752;28;19909;-54
2023/03/14 10:07:44;;;;;;;;;;;;;;;16.71;100.00;99457.78;4991064;28;19913;-53
2023/03/14 10:10:13;;;;;;;;;;;;;;;16.67;100.00;99468.31;4988455;28;19910;-51
2023/03/14 10:12:39;;;;;;;;;;;;;;;16.55;100.00;99478.56;4988663;28;19949;-53
2023/03/14 10:15:08;;;;;;;;;;;;;;;16.43;100.00;99484.22;4988740;28;19926;-52
2023/03/14 10:17:38;;;;;;;;;;;;;;;16.70;100.00;99496.66;4988285;28;20001;-53
2023/03/14 10:20:04;;;;;;;;;;;;;;;17.17;100.00;99514.47;4990682;28;19918;-53
2023/03/14 10:22:31;;;;;;;;;;;;;;;17.55;100.00;99527.69;4984057;28;19910;-51
2023/03/14 10:25:01;;;;;;;;;;;;;;;17.51;100.00;99542.00;4989394;28;19921;-52
2023/03/14 10:27:31;;;;;;;;;;;;;;;18.00;100.00;99535.91;4988561;28;19913;-50
2023/03/14 10:30:01;;;;;;;;;;;;;;;17.55;100.00;99551.19;4982476;28;19914;-55
2023/03/14 10:32:34;;;;;;;;;;;;;;;18.24;100.00;99558.84;4985789;28;19914;-49
2023/03/14 10:35:04;;;;;;;;;;;;;;;19.00;88.19;99572.19;4980743;28;19972;-52
2023/03/14 10:37:30;;;;;;;;;;;;;;;18.75;94.58;99582.91;4989601;28;19967;-54
2023/03/14 10:40:05;;;;;;;;;;;;;;;18.74;93.06;99596.72;4986273;28;19910;-54
2023/03/14 10:42:34;;;;;;;;;;;;;;;17.90;95.80;99607.06;4989368;28;19989;-51
2023/03/14 10:45:02;;;;;;;;;;;;;;;16.94;100.00;99628.41;4986080;28;19914;-53
2023/03/14 10:47:30;;;;;;;;;;;;;;;16.85;100.00;99658.66;4988961;28;19914;-51
2023/03/14 10:49:57;;;;;;;;;;;;;;;16.59;100.00;99658.59;4988891;28;19920;-52
2023/03/14 10:52:27;;;;;;;;;;;;;;;16.38;100.00;99667.66;4982873;28;19921;-51
2023/03/14 10:54:54;;;;;;;;;;;;;;;15.96;100.00;99663.94;4988676;28;19914;-51
2023/03/14 10:57:20;;;;;;;;;;;;;;;15.96;100.00;99672.84;4990664;28;19936;-54
2023/03/14 10:59:46;;;;;;;;;;;;;;;16.61;100.00;99688.81;4990800;28;19981;-53
2023/03/14 11:02:31;;;;;;;;;;;;;;;16.97;100.00;99695.41;4990020;28;19921;-54
2023/03/14 11:05:14;;;;;;;;;;;;;;;17.16;100.00;99717.38;4992966;28;19928;-54
2023/03/14 11:07:43;;;;;;;;;;;;;;;17.76;95.71;99730.38;4984203;28;19914;-56
2023/03/14 11:10:15;;;;;;;;;;;;;;;17.91;93.35;99735.78;4988624;28;19973;-52
2023/03/14 11:13:06;;;;;;;;;;;;;;;18.92;90.41;99742.31;4981676;28;19936;-49
2023/03/14 11:15:31;;;;;;;;;;;;;;;19.02;84.08;99752.34;4982395;28;19917;-51
2023/03/14 11:18:16;;;;;;;;;;;;;;;18.14;86.79;99763.41;4989050;28;19910;-53
2023/03/14 11:20:44;;;;;;;;;;;;;;;18.22;90.35;99763.91;4983556;28;19925;-54
2023/03/14 11:23:15;;;;;;;;;;;;;;;18.34;83.43;99786.09;4986920;28;19914;-54
2023/03/14 11:26:01;;;;;;;;;;;;;;;17.62;90.24;99779.59;4990126;28;19942;-50
2023/03/14 11:28:35;;;;;;;;;;;;;;;17.38;91.78;99783.88;4986590;28;19910;-56
2023/03/14 11:31:06;;;;;;;;;;;;;;;17.03;94.07;99794.31;4989095;28;19919;-55
2023/03/14 11:33:31;;;;;;;;;;;;;;;17.60;95.46;99807.97;4987688;28;21370;-56
2023/03/14 11:35:56;;;;;;;;;;;;;;;17.95;87.79;99810.97;4990459;28;19914;-55
2023/03/14 11:38:30;;;;;;;;;;;;;;;18.23;88.41;99814.28;4990879;28;19925;-55
2023/03/14 11:40:59;;;;;;;;;;;;;;;18.25;88.16;99820.22;4992288;28;19914;-55
2023/03/14 11:43:30;;;;;;;;;;;;;;;18.61;81.54;99831.00;4988843;28;19945;-57
2023/03/14 11:46:01;;;;;;;;;;;;;;;18.60;78.00;99838.31;4985030;28;19914;-52
2023/03/14 11:48:58;;;;;;;;;;;;;;;18.61;79.71;99853.47;4991103;28;20077;-54
2023/03/14 11:51:25;;;;;;;;;;;;;;;19.19;74.90;99857.66;4988845;28;19929;-56
2023/03/14 11:54:24;;;;;;;;;;;;;;;19.84;70.19;99872.25;4987491;28;19914;-55
2023/03/14 11:56:49;;;;;;;;;;;;;;;21.79;65.86;99872.47;5014372;28;19917;-57
2023/03/14 11:59:17;;;;;;;;;;;;;;;23.13;55.45;99879.50;4989903;28;19914;-57
2023/03/14 12:01:46;;;;;;;;;;;;;;;25.02;51.36;99892.81;4973780;28;19977;-53
2023/03/14 12:04:15;;;;;;;;;;;;;;;24.49;46.61;99896.13;4987114;28;19918;-56
2023/03/14 12:06:47;;;;;;;;;;;;;;;25.68;44.62;99916.69;4987194;28;19919;-52
2023/03/14 12:09:13;;;;;;;;;;;;;;;25.91;44.89;99909.13;4987766;28;19928;-52
2023/03/14 12:11:43;;;;;;;;;;;;;;;25.16;42.10;99917.34;4985226;28;19925;-57
2023/03/14 12:14:38;;;;;;;;;;;;;;;25.65;45.16;99922.00;4986264;28;19917;-53
2023/03/14 12:17:03;;;;;;;;;;;;;;;25.67;42.95;99930.72;4997653;28;19918;-55
2023/03/14 12:19:30;;;;;;;;;;;;;;;26.15;41.26;99932.50;4990725;28;19952;-56
2023/03/14 12:22:01;;;;;;;;;;;;;;;25.25;42.21;99940.06;4989359;28;19910;-56
2023/03/14 12:24:29;;;;;;;;;;;;;;;26.25;38.97;99938.78;4990481;28;19925;-54
2023/03/14 12:26:56;;;;;;;;;;;;;;;23.97;43.67;99961.22;4987194;28;19921;-55
2023/03/14 12:29:22;;;;;;;;;;;;;;;25.18;38.82;99961.63;4987636;28;19981;-53
2023/03/14 12:32:08;;;;;;;;;;;;;;;26.48;38.80;99962.16;4986655;28;19918;-53
2023/03/14 12:34:40;;;;;;;;;;;;;;;27.97;31.95;99981.09;4986166;28;19918;-52
2023/03/14 12:37:09;;;;;;;;;;;;;;;28.01;36.21;99976.53;4992489;28;19989;-55
2023/03/14 12:39:42;;;;;;;;;;;;;;;27.41;29.88;99990.28;4989417;28;19910;-55
2023/03/14 12:42:22;;;;;;;;;;;;;;;27.83;35.69;99982.16;4993834;28;19938;-55
2023/03/14 12:44:48;;;;;;;;;;;;;;;26.87;34.50;99986.13;4992404;28;19921;-54
2023/03/14 12:47:20;;;;;;;;;;;;;;;27.58;34.42;99987.47;4984522;28;19940;-57
2023/03/14 12:49:49;;;;;;;;;;;;;;;28.37;34.86;99999.88;4986048;28;19914;-57